Time;durP1;ratioP1;P1;durP2;ratioP2;P2;SDS_P1;SDS_P2;PMS_P1;PMS_P2;Temp;Humidity;BMP_temperature;BMP_pressure;BME280_temperature;BME280_humidity;BME280_pressure;Samples;Min_cycle;Max_cycle;Signal;HPM_P1;HPM_P2
2022/04/10 00:00:16;;;;;;;4.18;2.05;;;;;;;18.73;45.53;99713.94;5082019;28;20078;-89
2022/04/10 00:02:42;;;;;;;4.70;2.10;;;;;;;18.71;45.57;99715.81;5081503;28;20025;-89
2022/04/10 00:05:09;;;;;;;3.25;1.85;;;;;;;18.71;45.29;99710.53;5082695;28;20031;-88
2022/04/10 00:07:35;;;;;;;4.35;2.20;;;;;;;18.71;45.48;99709.66;5081794;28;20070;-89
2022/04/10 00:10:01;;;;;;;4.35;1.95;;;;;;;18.69;45.28;99709.72;5081932;28;20028;-89
2022/04/10 00:12:26;;;;;;;4.85;1.70;;;;;;;18.68;45.35;99710.66;5082407;28;20115;-88
2022/04/10 00:14:52;;;;;;;3.25;1.67;;;;;;;18.69;45.48;99706.25;5082736;28;20071;-89
2022/04/10 00:17:18;;;;;;;2.97;1.70;;;;;;;18.67;45.35;99702.78;5082377;28;20042;-88
2022/04/10 00:19:45;;;;;;;4.35;1.88;;;;;;;18.66;45.53;99707.25;5082206;28;20114;-89
2022/04/10 00:22:12;;;;;;;4.22;2.13;;;;;;;18.63;45.36;99704.72;5082389;28;20056;-89
2022/04/10 00:24:38;;;;;;;4.45;2.33;;;;;;;18.62;45.47;99705.66;5082090;28;20362;-89
2022/04/10 00:27:05;;;;;;;3.35;2.08;;;;;;;18.62;45.52;99701.25;5082481;28;20457;-89
2022/04/10 00:29:31;;;;;;;3.97;2.10;;;;;;;18.61;45.23;99703.94;5082239;28;20038;-88
2022/04/10 00:31:57;;;;;;;4.13;2.03;;;;;;;18.60;45.37;99702.25;5082298;28;20024;-90
2022/04/10 00:34:23;;;;;;;4.07;1.88;;;;;;;18.60;45.39;99702.25;5082797;28;20040;-88
2022/04/10 00:36:48;;;;;;;4.53;2.28;;;;;;;18.58;45.62;99697.03;5081919;28;20024;-87
2022/04/10 00:39:14;;;;;;;4.82;2.42;;;;;;;18.58;45.47;99693.50;5082139;28;20032;-89
2022/04/10 00:41:40;;;;;;;5.13;2.33;;;;;;;18.58;45.41;99694.38;5082264;28;20059;-89
2022/04/10 00:44:15;;;;;;;4.18;2.00;;;;;;;18.56;45.42;99690.97;5082922;28;20043;-89
2022/04/10 00:46:41;;;;;;;3.67;1.88;;;;;;;18.55;45.22;99691.88;5084437;28;20040;-90
2022/04/10 00:49:07;;;;;;;4.50;2.10;;;;;;;18.54;45.57;99682.22;5085608;28;20079;-91
2022/04/10 00:52:07;;;;;;;4.63;1.98;;;;;;;18.52;45.29;99684.97;5084226;28;20040;-89
2022/04/10 00:54:26;;;;;;;5.10;2.40;;;;;;;18.54;45.55;99686.69;5085175;28;20036;-89
2022/04/10 00:56:55;;;;;;;4.03;2.10;;;;;;;18.52;45.43;99687.63;5083868;28;20125;-91
2022/04/10 00:59:21;;;;;;;4.45;2.03;;;;;;;18.51;45.15;99685.03;5083117;28;20058;-89
2022/04/10 01:01:48;;;;;;;4.20;2.22;;;;;;;18.50;45.43;99681.53;5083220;28;20036;-89
2022/04/10 01:04:14;;;;;;;4.13;1.95;;;;;;;18.49;45.26;99677.16;5083821;28;20039;-87
2022/04/10 01:06:42;;;;;;;4.38;2.58;;;;;;;18.49;45.40;99679.81;5083615;28;20032;-89
2022/04/10 01:09:07;;;;;;;5.15;2.55;;;;;;;18.47;45.21;99676.41;5084142;28;20028;-89
2022/04/10 01:11:34;;;;;;;5.28;2.25;;;;;;;18.47;45.34;99667.59;5083794;28;20040;-88
2022/04/10 01:14:02;;;;;;;3.90;2.03;;;;;;;18.45;45.20;99667.66;5083461;28;20025;-90
2022/04/10 01:16:29;;;;;;;4.13;2.20;;;;;;;18.44;45.61;99659.84;5083093;28;20043;-89
2022/04/10 01:18:56;;;;;;;4.82;2.25;;;;;;;18.41;45.22;99663.47;5084721;28;20112;-90
2022/04/10 01:21:26;;;;;;;5.00;2.28;;;;;;;18.42;45.16;99656.38;5088812;28;20055;-88
2022/04/10 01:23:56;;;;;;;4.35;2.03;;;;;;;18.42;45.33;99649.34;5088668;28;20032;-89
2022/04/10 01:26:23;;;;;;;4.65;2.13;;;;;;;18.42;45.24;99640.53;5084617;28;20403;-89
2022/04/10 01:29:02;;;;;;;3.50;2.13;;;;;;;18.38;45.37;99637.19;5082273;28;20343;-89
2022/04/10 01:31:30;;;;;;;4.07;2.25;;;;;;;18.39;45.09;99636.25;5082573;28;20033;-89
2022/04/10 01:33:59;;;;;;;4.70;2.40;;;;;;;18.36;45.18;99633.78;5081724;28;20096;-89
2022/04/10 01:36:29;;;;;;;4.50;2.20;;;;;;;18.37;44.96;99632.84;5083531;28;20025;-89
2022/04/10 01:38:58;;;;;;;4.40;2.25;;;;;;;18.35;45.29;99629.44;5082630;28;20424;-89
2022/04/10 01:41:25;;;;;;;4.70;2.40;;;;;;;18.33;45.04;99631.25;5082477;28;20039;-88
2022/04/10 01:43:52;;;;;;;4.28;2.50;;;;;;;18.34;45.26;99632.97;5081711;28;20021;-89
2022/04/10 01:46:19;;;;;;;3.67;2.13;;;;;;;18.33;45.05;99625.97;5082200;28;20027;-90
2022/04/10 01:48:45;;;;;;;4.50;2.30;;;;;;;18.33;45.07;99636.53;5081977;28;20035;-88
2022/04/10 01:51:11;;;;;;;4.43;2.35;;;;;;;18.32;45.30;99634.84;5083107;28;20020;-90
2022/04/10 01:53:38;;;;;;;4.78;2.30;;;;;;;18.30;45.05;99631.41;5082696;28;20327;-88
2022/04/10 01:56:05;;;;;;;4.93;2.35;;;;;;;18.28;45.12;99627.97;5083574;28;20024;-88
2022/04/10 01:58:32;;;;;;;5.30;2.33;;;;;;;18.29;45.14;99634.97;5082816;28;20025;-90
2022/04/10 02:01:02;;;;;;;4.57;2.38;;;;;;;18.27;45.40;99629.78;5083777;28;20048;-88
2022/04/10 02:03:28;;;;;;;4.80;2.30;;;;;;;18.25;45.24;99635.13;5082997;28;20111;-88
2022/04/10 02:05:55;;;;;;;4.57;2.35;;;;;;;18.23;45.01;99637.00;5081448;28;20040;-88
2022/04/10 02:08:21;;;;;;;4.32;2.65;;;;;;;18.23;45.39;99626.44;5081428;28;20032;-87
2022/04/10 02:10:47;;;;;;;4.32;2.30;;;;;;;18.21;45.23;99628.25;5081765;28;20123;-89
2022/04/10 02:13:12;;;;;;;5.35;2.60;;;;;;;18.21;45.22;99632.72;5081516;28;20028;-88
2022/04/10 02:15:39;;;;;;;4.70;2.28;;;;;;;18.20;45.37;99631.84;5081048;28;20477;-87
2022/04/10 02:18:06;;;;;;;3.70;2.10;;;;;;;18.19;44.94;99630.13;5081329;28;20028;-86
2022/04/10 02:20:32;;;;;;;4.32;2.45;;;;;;;18.18;45.07;99625.78;5081289;28;20056;-87
2022/04/10 02:22:57;;;;;;;4.82;2.45;;;;;;;18.18;45.32;99622.28;5082550;28;20024;-89
2022/04/10 02:25:23;;;;;;;3.78;2.10;;;;;;;18.17;45.48;99626.72;5083477;28;20032;-88
2022/04/10 02:27:49;;;;;;;4.30;2.20;;;;;;;18.17;45.13;99625.84;5082041;28;20024;-89
2022/04/10 02:30:16;;;;;;;4.18;2.10;;;;;;;18.13;45.19;99625.13;5082157;28;20048;-88
2022/04/10 02:32:42;;;;;;;3.95;2.00;;;;;;;18.14;45.17;99625.97;5081390;28;20020;-89
2022/04/10 02:35:08;;;;;;;3.20;1.80;;;;;;;18.13;45.39;99625.13;5081822;28;20048;-89
2022/04/10 02:37:35;;;;;;;3.28;2.08;;;;;;;18.12;45.21;99618.16;5082118;28;20024;-88
2022/04/10 02:40:03;;;;;;;4.03;2.17;;;;;;;18.12;45.17;99623.44;5084448;28;20032;-90
2022/04/10 02:42:29;;;;;;;3.88;2.20;;;;;;;18.10;45.00;99626.13;5085641;28;20052;-90
2022/04/10 02:44:55;;;;;;;3.88;2.25;;;;;;;18.08;45.13;99616.56;5084979;28;20027;-88
2022/04/10 02:47:21;;;;;;;4.97;2.33;;;;;;;18.08;45.07;99622.72;5085978;28;20024;-88
2022/04/10 02:49:47;;;;;;;4.53;2.08;;;;;;;18.07;45.30;99620.13;5085545;28;20021;-88
2022/04/10 02:52:12;;;;;;;3.88;2.10;;;;;;;18.05;44.91;99619.31;5084944;28;20016;-89
2022/04/10 02:54:38;;;;;;;4.05;2.20;;;;;;;18.04;45.34;99625.50;5087187;28;20020;-89
2022/04/10 02:57:04;;;;;;;4.22;2.30;;;;;;;18.03;45.11;99629.09;5084338;28;20454;-88
2022/04/10 02:59:30;;;;;;;4.30;2.25;;;;;;;18.04;45.33;99622.88;5085667;28;20024;-89
2022/04/10 03:01:55;;;;;;;4.63;2.33;;;;;;;18.01;45.14;99630.94;5084933;28;20512;-89
2022/04/10 03:04:21;;;;;;;5.07;2.50;;;;;;;17.98;45.60;99627.50;5085355;28;20108;-89
2022/04/10 03:06:47;;;;;;;3.63;1.95;;;;;;;17.97;45.27;99631.06;5085736;28;20087;-88
2022/04/10 03:09:15;;;;;;;4.78;2.22;;;;;;;17.96;45.67;99634.66;5085860;28;20031;-89
2022/04/10 03:11:41;;;;;;;5.05;2.30;;;;;;;17.96;45.77;99623.22;5086457;28;20024;-89
2022/04/10 03:14:06;;;;;;;2.97;1.73;;;;;;;17.95;45.27;99622.38;5085680;28;20461;-89
2022/04/10 03:16:35;;;;;;;3.97;1.95;;;;;;;17.96;45.65;99620.59;5086806;28;20055;-88
2022/04/10 03:19:01;;;;;;;3.58;1.77;;;;;;;17.92;45.60;99619.88;5085416;28;20045;-89
2022/04/10 03:21:27;;;;;;;4.20;2.05;;;;;;;17.91;45.33;99615.53;5085831;28;20025;-89
2022/04/10 03:23:52;;;;;;;3.58;1.83;;;;;;;17.91;45.64;99615.53;5085703;28;20043;-87
2022/04/10 03:26:18;;;;;;;3.10;2.03;;;;;;;17.91;45.53;99609.41;5087442;28;20028;-90
2022/04/10 03:28:44;;;;;;;3.70;1.98;;;;;;;17.91;45.44;99615.53;5085881;28;20032;-88
2022/04/10 03:31:10;;;;;;;3.80;1.95;;;;;;;17.90;45.26;99603.25;5087242;28;20035;-89
2022/04/10 03:33:36;;;;;;;3.80;2.10;;;;;;;17.91;45.44;99607.59;5086817;28;20367;-88
2022/04/10 03:36:01;;;;;;;4.20;1.90;;;;;;;17.91;45.16;99604.13;5086726;28;20021;-88
2022/04/10 03:38:27;;;;;;;3.90;1.90;;;;;;;17.90;45.30;99603.25;5088229;28;20021;-90
2022/04/10 03:40:53;;;;;;;4.90;2.25;;;;;;;17.88;45.22;99599.84;5088256;28;20032;-89
2022/04/10 03:43:21;;;;;;;3.03;1.80;;;;;;;17.88;45.17;99605.13;5089788;28;20024;-90
2022/04/10 03:45:46;;;;;;;4.28;2.22;;;;;;;17.85;44.93;99603.47;5089078;28;20040;-89
2022/04/10 03:48:12;;;;;;;4.72;2.40;;;;;;;17.87;45.08;99603.38;5087950;28;20024;-90
2022/04/10 03:50:38;;;;;;;5.10;2.33;;;;;;;17.84;44.91;99600.91;5090137;28;20008;-90
2022/04/10 03:53:04;;;;;;;4.28;2.22;;;;;;;17.84;45.03;99611.44;5089990;28;20016;-91
2022/04/10 03:55:32;;;;;;;5.15;2.47;;;;;;;17.84;44.77;99598.25;5089077;28;20351;-90
2022/04/10 03:57:58;;;;;;;3.60;2.00;;;;;;;17.83;44.79;99593.91;5088922;28;20028;-88
2022/04/10 04:00:24;;;;;;;3.67;2.10;;;;;;;17.83;44.79;99593.91;5085859;28;20020;-88
2022/04/10 04:02:50;;;;;;;4.78;2.35;;;;;;;17.82;44.59;99585.13;5085242;28;20027;-89
2022/04/10 04:05:15;;;;;;;4.57;2.17;;;;;;;17.80;45.03;99580.84;5084512;28;20063;-90
2022/04/10 04:07:42;;;;;;;3.15;2.00;;;;;;;17.78;44.83;99580.91;5083652;28;20081;-90
2022/04/10 04:10:08;;;;;;;6.07;2.35;;;;;;;17.76;44.72;99579.25;5083843;28;20339;-88
2022/04/10 04:12:35;;;;;;;4.28;2.20;;;;;;;17.76;44.50;99576.63;5083268;28;20520;-89
2022/04/10 04:15:01;;;;;;;4.15;2.28;;;;;;;17.75;44.70;99573.13;5082827;28;20153;-89
2022/04/10 04:17:26;;;;;;;4.07;2.17;;;;;;;17.75;44.71;99567.00;5083098;28;20039;-90
2022/04/10 04:19:53;;;;;;;4.22;2.25;;;;;;;17.71;44.75;99556.59;5083102;28;20462;-90
2022/04/10 04:22:19;;;;;;;5.32;2.50;;;;;;;17.71;44.66;99561.88;5084335;28;20410;-90
2022/04/10 04:24:45;;;;;;;4.13;2.28;;;;;;;17.67;44.54;99555.00;5083334;28;20083;-91
2022/04/10 04:27:11;;;;;;;3.75;2.00;;;;;;;17.67;44.43;99549.72;5083841;28;20121;-88
2022/04/10 04:29:37;;;;;;;4.38;2.20;;;;;;;17.65;44.19;99554.22;5083407;28;20024;-87
2022/04/10 04:32:03;;;;;;;4.20;2.35;;;;;;;17.63;44.51;99548.16;5084708;28;20033;-89
2022/04/10 04:34:29;;;;;;;3.83;2.03;;;;;;;17.62;44.40;99551.72;5082910;28;20095;-89
2022/04/10 04:36:55;;;;;;;4.38;2.13;;;;;;;17.61;44.29;99550.00;5084523;28;20442;-86
2022/04/10 04:39:20;;;;;;;3.28;1.90;;;;;;;17.61;44.10;99550.00;5084079;28;20060;-87
2022/04/10 04:41:46;;;;;;;3.58;1.83;;;;;;;17.60;44.29;99552.72;5084169;28;20048;-86
2022/04/10 04:44:12;;;;;;;3.63;1.85;;;;;;;17.58;44.44;99550.16;5084233;28;20020;-88
2022/04/10 04:46:38;;;;;;;3.47;2.10;;;;;;;17.57;44.59;99543.16;5084062;28;20029;-88
2022/04/10 04:49:04;;;;;;;3.75;2.08;;;;;;;17.57;44.40;99543.16;5084131;28;20107;-86
2022/04/10 04:51:34;;;;;;;4.53;1.75;;;;;;;17.54;44.41;99554.69;5084911;28;20075;-88
2022/04/10 04:54:03;;;;;;;4.05;1.67;;;;;;;17.54;44.38;99551.22;5084320;28;20354;-88
2022/04/10 04:56:29;;;;;;;4.03;1.85;;;;;;;17.54;44.28;99553.84;5083555;28;20028;-87
2022/04/10 04:58:56;;;;;;;4.60;2.13;;;;;;;17.52;44.63;99555.69;5083625;28;20059;-88
2022/04/10 05:01:22;;;;;;;3.80;1.90;;;;;;;17.52;44.45;99550.41;5083136;28;20024;-87
2022/04/10 05:03:49;;;;;;;3.88;1.83;;;;;;;17.49;44.22;99540.00;5084874;28;20539;-88
2022/04/10 05:06:15;;;;;;;3.45;1.83;;;;;;;17.49;44.39;99535.59;5085934;28;20012;-90
2022/04/10 05:08:41;;;;;;;4.78;2.17;;;;;;;17.48;44.31;99543.59;5084220;28;20403;-89
2022/04/10 05:11:11;;;;;;;4.40;1.70;;;;;;;17.47;44.10;99541.88;5083748;28;20020;-87
2022/04/10 05:13:36;;;;;;;5.00;2.17;;;;;;;17.45;44.19;99537.50;5085151;28;20092;-88
2022/04/10 05:16:02;;;;;;;3.97;1.77;;;;;;;17.45;44.17;99534.88;5083454;28;20048;-88
2022/04/10 05:18:28;;;;;;;3.80;1.70;;;;;;;17.42;43.96;99542.06;5083876;28;20056;-87
2022/04/10 05:20:54;;;;;;;3.45;1.52;;;;;;;17.41;44.16;99543.84;5084632;28;20078;-90
2022/04/10 05:23:20;;;;;;;5.47;2.00;;;;;;;17.39;44.19;99545.69;5084964;28;20031;-89
2022/04/10 05:25:46;;;;;;;3.17;1.60;;;;;;;17.39;44.18;99555.41;5084404;28;20020;-89
2022/04/10 05:28:13;;;;;;;2.92;1.73;;;;;;;17.38;44.30;99549.25;5083036;28;20027;-89
2022/04/10 05:30:39;;;;;;;5.60;2.20;;;;;;;17.38;43.99;99558.97;5084902;28;20020;-88
2022/04/10 05:33:04;;;;;;;3.20;1.63;;;;;;;17.35;44.26;99554.69;5083648;28;20170;-89
2022/04/10 05:35:30;;;;;;;4.15;1.80;;;;;;;17.33;44.24;99561.78;5085748;28;20567;-88
2022/04/10 05:37:56;;;;;;;3.08;1.55;;;;;;;17.30;44.61;99567.22;5084778;28;20039;-89
2022/04/10 05:40:22;;;;;;;2.88;1.50;;;;;;;17.28;44.48;99563.78;5084830;28;20021;-88
2022/04/10 05:42:48;;;;;;;3.67;2.03;;;;;;;17.29;44.61;99560.22;5085149;28;20029;-88
2022/04/10 05:45:14;;;;;;;4.10;1.75;;;;;;;17.28;44.69;99558.50;5085822;28;20056;-88
2022/04/10 05:47:41;;;;;;;3.15;1.80;;;;;;;17.27;44.82;99557.66;5084253;28;20020;-88
2022/04/10 05:50:09;;;;;;;4.50;2.20;;;;;;;17.30;44.84;99556.66;5085651;28;20350;-91
2022/04/10 05:52:46;;;;;;;3.58;1.73;;;;;;;17.28;44.53;99561.13;5085217;28;20025;-88
2022/04/10 05:55:14;;;;;;;4.05;1.70;;;;;;;17.29;44.72;99549.69;5084814;28;20027;-89
2022/04/10 05:57:40;;;;;;;2.90;1.65;;;;;;;17.31;44.24;99553.09;5085228;28;20024;-88
2022/04/10 06:00:10;;;;;;;3.67;1.80;;;;;;;17.30;44.60;99551.38;5085620;28;20511;-89
2022/04/10 06:02:37;;;;;;;3.33;1.60;;;;;;;17.30;44.29;99551.38;5085384;28;20093;-87
2022/04/10 06:05:03;;;;;;;4.55;1.75;;;;;;;17.28;44.36;99555.84;5084686;28;20016;-91
2022/04/10 06:07:29;;;;;;;3.75;1.45;;;;;;;17.28;44.45;99564.63;5087881;28;20028;-90
2022/04/10 06:09:54;;;;;;;2.70;1.52;;;;;;;17.27;44.41;99572.59;5086308;28;20024;-90
2022/04/10 06:12:20;;;;;;;4.43;1.83;;;;;;;17.27;44.44;99567.34;5087049;28;20050;-90
2022/04/10 06:14:46;;;;;;;3.88;1.58;;;;;;;17.26;44.34;99565.63;5087103;28;20062;-89
2022/04/10 06:17:12;;;;;;;3.22;1.63;;;;;;;17.27;44.41;99572.59;5087638;28;20110;-90
2022/04/10 06:19:38;;;;;;;3.17;1.60;;;;;;;17.26;44.53;99570.91;5087838;28;20072;-90
2022/04/10 06:22:05;;;;;;;3.42;1.70;;;;;;;17.25;44.68;99566.56;5087542;28;20035;-89
2022/04/10 06:24:31;;;;;;;4.68;1.85;;;;;;;17.25;44.73;99566.56;5088213;28;20016;-90
2022/04/10 06:26:57;;;;;;;3.55;1.90;;;;;;;17.26;44.75;99570.91;5087978;28;20431;-89
2022/04/10 06:29:22;;;;;;;4.00;1.92;;;;;;;17.24;44.46;99565.69;5085176;28;20028;-87
2022/04/10 06:31:49;;;;;;;2.85;1.60;;;;;;;17.24;44.56;99557.78;5083522;28;20485;-86
2022/04/10 06:34:15;;;;;;;4.18;1.92;;;;;;;17.23;44.63;99558.69;5083836;28;20035;-87
2022/04/10 06:36:41;;;;;;;3.65;1.70;;;;;;;17.24;44.54;99556.94;5084074;28;20028;-87
2022/04/10 06:39:07;;;;;;;3.45;1.63;;;;;;;17.23;44.65;99560.50;5083910;28;20087;-87
2022/04/10 06:41:33;;;;;;;3.28;1.73;;;;;;;17.23;44.54;99563.97;5082676;28;20119;-88
2022/04/10 06:43:59;;;;;;;3.38;1.70;;;;;;;17.24;44.68;99567.47;5083430;28;20048;-88
2022/04/10 06:46:26;;;;;;;4.25;1.70;;;;;;;17.26;44.69;99560.34;5081269;28;20481;-88
2022/04/10 06:48:55;;;;;;;3.13;1.80;;;;;;;17.23;44.44;99571.06;5080448;28;20351;-89
2022/04/10 06:51:24;;;;;;;4.03;1.80;;;;;;;17.23;44.67;99565.78;5079597;28;20028;-89
2022/04/10 06:53:50;;;;;;;3.63;1.90;;;;;;;17.23;44.68;99565.78;5080672;28;20020;-89
2022/04/10 06:56:16;;;;;;;3.47;1.67;;;;;;;17.24;44.56;99562.22;5080057;28;20036;-89
2022/04/10 06:58:42;;;;;;;4.10;1.85;;;;;;;17.24;44.53;99567.47;5081112;28;20048;-89
2022/04/10 07:01:08;;;;;;;3.35;1.60;;;;;;;17.23;44.30;99558.69;5080189;28;20032;-88
2022/04/10 07:03:37;;;;;;;4.65;1.70;;;;;;;17.23;44.67;99555.22;5080043;28;20020;-89
2022/04/10 07:06:03;;;;;;;4.82;1.88;;;;;;;17.24;44.59;99555.13;5080669;28;20044;-88
2022/04/10 07:08:29;;;;;;;3.50;1.60;;;;;;;17.24;44.56;99556.94;5081169;28;20024;-88
2022/04/10 07:10:55;;;;;;;4.40;1.80;;;;;;;17.24;44.28;99547.22;5081297;28;20112;-88
2022/04/10 07:13:21;;;;;;;2.92;1.50;;;;;;;17.26;44.40;99552.44;5079954;28;20032;-89
2022/04/10 07:15:50;;;;;;;3.10;1.40;;;;;;;17.24;44.66;99546.38;5080211;28;20082;-90
2022/04/10 07:18:16;;;;;;;3.80;1.88;;;;;;;17.24;43.99;99546.38;5080349;28;20482;-87
2022/04/10 07:20:43;;;;;;;4.03;1.65;;;;;;;17.26;44.45;99545.41;5080291;28;20075;-91
2022/04/10 07:25:53;;;;;;;3.33;1.40;;;;;;;17.28;44.12;99542.66;5084915;28;20036;-88
2022/04/10 07:28:20;;;;;;;3.85;1.83;;;;;;;17.29;44.01;99539.97;5084108;28;20012;-87
2022/04/10 07:30:46;;;;;;;3.78;1.70;;;;;;;17.29;44.09;99554.97;5084011;28;20029;-87
2022/04/10 07:33:12;;;;;;;3.65;2.03;;;;;;;17.31;43.92;99553.09;5083967;28;20032;-88
2022/04/10 07:35:41;;;;;;;4.88;1.65;;;;;;;17.30;44.10;99535.56;5085760;28;20020;-88
2022/04/10 07:38:08;;;;;;;3.92;1.70;;;;;;;17.30;43.66;99543.47;5084897;28;20077;-87
2022/04/10 07:40:35;;;;;;;4.25;1.85;;;;;;;17.29;43.62;99539.13;5085550;28;20016;-89
2022/04/10 07:43:02;;;;;;;4.65;1.83;;;;;;;17.31;43.59;99538.16;5083509;28;20174;-89
2022/04/10 07:48:12;;;;;;;2.75;1.48;;;;;;;17.35;43.37;99541.50;5084137;28;20031;-88
2022/04/10 07:50:38;;;;;;;3.85;1.60;;;;;;;17.37;43.59;99534.38;5082371;28;20107;-89
2022/04/10 07:53:04;;;;;;;3.55;1.55;;;;;;;17.37;43.38;99531.72;5083756;28;20035;-90
2022/04/10 07:55:30;;;;;;;5.15;1.83;;;;;;;17.38;43.41;99533.44;5081655;28;20092;-88
2022/04/10 07:57:56;;;;;;;4.63;2.08;;;;;;;17.39;43.22;99529.88;5081727;28;20035;-90
2022/04/10 08:00:22;;;;;;;3.17;1.50;;;;;;;17.36;43.18;99524.75;5082288;28;20024;-89
2022/04/10 08:02:48;;;;;;;4.97;2.08;;;;;;;17.38;43.11;99528.16;5082207;28;20070;-90
2022/04/10 08:05:19;;;;;;;3.75;1.83;;;;;;;17.38;42.83;99532.59;5082265;28;20021;-88
2022/04/10 08:07:48;;;;;;;4.85;1.90;;;;;;;17.38;43.11;99522.88;5081704;28;20024;-89
2022/04/10 08:10:14;;;;;;;4.30;1.60;;;;;;;17.40;42.91;99530.72;5080724;28;20116;-88
2022/04/10 08:12:42;;;;;;;3.45;1.58;;;;;;;17.41;42.90;99528.03;5080180;28;20098;-89
2022/04/10 08:15:09;;;;;;;3.88;1.90;;;;;;;17.43;43.12;99522.66;5079155;28;20035;-88
2022/04/10 08:17:35;;;;;;;4.50;1.35;;;;;;;17.43;42.87;99515.63;5078960;28;20120;-89
2022/04/10 08:20:04;;;;;;;4.25;1.50;;;;;;;17.46;42.97;99509.34;5078608;28;20076;-90
2022/04/10 08:22:31;;;;;;;4.80;1.70;;;;;;;17.49;43.18;99513.63;5079723;28;20465;-89
2022/04/10 08:25:02;;;;;;;5.55;1.63;;;;;;;17.50;43.08;99510.06;5079286;28;20383;-89
2022/04/10 08:27:28;;;;;;;2.75;1.55;;;;;;;17.53;42.88;99504.66;5079944;28;20025;-88
2022/04/10 08:29:54;;;;;;;5.35;1.35;;;;;;;17.54;42.95;99499.28;5080126;28;20118;-89
2022/04/10 08:32:24;;;;;;;3.92;1.67;;;;;;;17.54;42.78;99499.28;5081087;28;20052;-91
2022/04/10 08:34:50;;;;;;;3.30;1.48;;;;;;;17.57;42.70;99500.94;5082369;28;20124;-89
2022/04/10 08:37:16;;;;;;;4.20;1.52;;;;;;;17.59;42.95;99509.66;5080093;28;20033;-90
2022/04/10 08:39:42;;;;;;;5.07;2.08;;;;;;;17.62;42.95;99511.28;5080329;28;20032;-92
2022/04/10 08:42:08;;;;;;;2.75;1.38;;;;;;;17.63;42.88;99505.09;5080979;28;20086;-91
2022/04/10 08:44:35;;;;;;;3.75;1.70;;;;;;;17.63;42.66;99510.38;5081634;28;20104;-90
2022/04/10 08:47:01;;;;;;;4.25;1.70;;;;;;;17.66;42.71;99511.06;5080840;28;20513;-89
2022/04/10 08:49:31;;;;;;;3.25;1.40;;;;;;;17.67;42.63;99518.06;5080259;28;20115;-90
2022/04/10 08:51:59;;;;;;;3.13;1.27;;;;;;;17.69;42.68;99518.84;5081013;28;20063;-90
2022/04/10 08:54:26;;;;;;;2.72;1.30;;;;;;;17.73;42.74;99526.63;5079690;28;20055;-90
2022/04/10 08:56:51;;;;;;;3.75;1.38;;;;;;;17.74;42.86;99523.06;5078650;28;20032;-90
2022/04/10 08:59:20;;;;;;;4.90;1.23;;;;;;;17.75;42.96;99530.03;5079331;28;20020;-90
2022/04/10 09:01:51;;;;;;;2.45;1.00;;;;;;;17.76;42.83;99531.75;5078074;28;20028;-90
2022/04/10 09:04:23;;;;;;;4.18;1.40;;;;;;;17.78;42.44;99525.47;5077712;28;20128;-91
2022/04/10 09:07:07;;;;;;;3.80;1.25;;;;;;;17.81;42.65;99535.03;5080330;28;20048;-90
2022/04/10 09:09:34;;;;;;;3.08;1.20;;;;;;;17.82;42.54;99526.22;5078305;28;20119;-90
2022/04/10 09:12:00;;;;;;;2.42;1.20;;;;;;;17.84;42.67;99529.63;5078184;28;20020;-90
2022/04/10 09:14:39;;;;;;;2.53;1.20;;;;;;;17.87;42.79;99534.75;5078657;28;20040;-91
2022/04/10 09:17:13;;;;;;;3.45;1.17;;;;;;;17.88;42.82;99531.19;5079889;28;20457;-90
2022/04/10 09:19:47;;;;;;;2.83;1.30;;;;;;;17.89;42.54;99517.06;5077837;28;20051;-90
2022/04/10 09:22:42;;;;;;;2.85;1.10;;;;;;;17.91;42.93;99523.13;5077821;28;20028;-90
2022/04/10 09:25:15;;;;;;;3.50;0.93;;;;;;;17.93;42.63;99523.91;5074256;28;20074;-88
2022/04/10 09:27:48;;;;;;;3.45;1.10;;;;;;;17.94;42.65;99530.91;5078791;28;20025;-90
2022/04/10 09:30:19;;;;;;;2.33;1.00;;;;;;;17.96;42.36;99529.03;5077632;28;20097;-88
2022/04/10 09:32:50;;;;;;;1.85;0.73;;;;;;;17.99;42.34;99533.31;5078132;28;20020;-90
2022/04/10 09:35:18;;;;;;;2.05;1.00;;;;;;;17.98;42.13;99532.47;5077722;28;20025;-90
2022/04/10 09:37:49;;;;;;;2.47;1.10;;;;;;;18.00;42.34;99519.19;5078171;28;20123;-90
2022/04/10 09:40:29;;;;;;;3.38;0.98;;;;;;;18.01;42.44;99512.13;5078145;28;20103;-89
2022/04/10 09:43:05;;;;;;;2.10;0.75;;;;;;;18.04;42.63;99510.22;5078726;28;20031;-89
2022/04/10 09:45:39;;;;;;;2.85;1.05;;;;;;;18.07;42.58;99511.88;5077137;28;20059;-89
2022/04/10 09:48:27;;;;;;;3.45;0.90;;;;;;;18.08;42.58;99510.94;5079626;28;20484;-89
2022/04/10 09:51:03;;;;;;;4.15;1.25;;;;;;;18.10;42.61;99519.63;5077879;28;20024;-89
2022/04/10 09:53:32;;;;;;;2.85;0.82;;;;;;;18.11;42.17;99510.78;5077867;28;20024;-90
2022/04/10 09:56:05;;;;;;;1.85;0.77;;;;;;;18.13;42.40;99514.22;5079555;28;20021;-89
2022/04/10 09:58:32;;;;;;;1.10;0.60;;;;;;;18.14;42.30;99510.66;5078048;28;20469;-88
2022/04/10 10:00:59;;;;;;;2.15;0.80;;;;;;;18.16;42.31;99510.56;5077965;28;20032;-88
2022/04/10 10:03:28;;;;;;;2.35;0.80;;;;;;;18.16;42.43;99506.13;5077926;28;20088;-88
2022/04/10 10:05:55;;;;;;;2.83;1.02;;;;;;;18.18;42.31;99501.66;5077969;28;20032;-88
2022/04/10 10:08:24;;;;;;;4.70;1.20;;;;;;;18.19;42.36;99499.84;5077406;28;20374;-88
2022/04/10 10:10:50;;;;;;;2.65;1.00;;;;;;;18.21;42.48;99506.78;5077180;28;20024;-87
2022/04/10 10:13:16;;;;;;;2.53;1.10;;;;;;;18.22;42.42;99497.91;5077181;28;20029;-87
2022/04/10 10:15:44;;;;;;;1.85;0.70;;;;;;;18.23;42.58;99502.28;5077415;28;20078;-88
2022/04/10 10:18:11;;;;;;;1.88;0.82;;;;;;;18.25;42.56;99492.50;5077874;28;20127;-87
2022/04/10 10:20:40;;;;;;;2.95;0.70;;;;;;;18.28;42.49;99495.91;5080296;28;20081;-88
2022/04/10 10:23:14;;;;;;;1.80;0.77;;;;;;;18.27;42.44;99495.06;5081764;28;20039;-90
2022/04/10 10:25:54;;;;;;;2.72;0.70;;;;;;;18.30;42.35;99491.41;5077471;28;20369;-87
2022/04/10 10:28:55;;;;;;;2.17;0.70;;;;;;;18.29;42.39;99487.03;5076747;28;20028;-90
2022/04/10 10:31:41;;;;;;;2.35;0.75;;;;;;;18.31;42.40;99479.91;5077718;28;20491;-90
2022/04/10 10:34:09;;;;;;;1.67;0.80;;;;;;;18.32;42.29;99471.94;5076796;28;20025;-89
2022/04/10 10:36:35;;;;;;;2.70;1.00;;;;;;;18.34;42.12;99477.09;5076886;28;20104;-90
2022/04/10 10:39:04;;;;;;;1.23;0.63;;;;;;;18.34;42.20;99474.47;5076718;28;20037;-91
2022/04/10 10:41:40;;;;;;;2.13;0.85;;;;;;;18.36;42.05;99467.34;5076194;28;20051;-88
2022/04/10 10:44:41;;;;;;;1.10;0.57;;;;;;;18.37;42.11;99474.31;5075714;28;20194;-89
2022/04/10 10:47:19;;;;;;;2.15;0.57;;;;;;;18.38;42.04;99468.09;5076143;28;20482;-88
2022/04/10 10:49:50;;;;;;;1.98;0.63;;;;;;;18.40;42.30;99462.75;5075720;28;20458;-90
2022/04/10 10:52:16;;;;;;;2.33;0.68;;;;;;;18.40;41.85;99460.94;5076387;28;20485;-90
2022/04/10 10:54:46;;;;;;;2.50;0.80;;;;;;;18.40;41.96;99453.03;5077990;28;20439;-90
2022/04/10 10:57:50;;;;;;;2.15;0.70;;;;;;;18.42;41.99;99443.25;5075269;28;20055;-89
2022/04/10 11:00:19;;;;;;;1.20;0.60;;;;;;;18.44;42.22;99437.91;5076325;28;20071;-90
2022/04/10 11:02:50;;;;;;;2.60;0.70;;;;;;;18.45;42.05;99435.16;5079412;28;20423;-89
2022/04/10 11:05:25;;;;;;;2.03;0.70;;;;;;;18.46;42.02;99428.09;5079676;28;20029;-90
2022/04/10 11:08:05;;;;;;;1.45;0.63;;;;;;;18.46;42.14;99431.56;5080247;28;20351;-88
2022/04/10 11:10:35;;;;;;;1.75;0.60;;;;;;;18.48;41.93;99435.00;5080237;28;20032;-90
2022/04/10 11:13:04;;;;;;;2.85;0.70;;;;;;;18.49;42.00;99425.28;5079541;28;20032;-90
2022/04/10 11:16:08;;;;;;;1.45;0.60;;;;;;;18.50;41.87;99427.03;5080263;28;20359;-90
2022/04/10 11:18:37;;;;;;;1.65;0.63;;;;;;;18.50;42.15;99427.84;5079154;28;20169;-91
2022/04/10 11:21:13;;;;;;;2.10;0.80;;;;;;;18.52;42.24;99426.00;5079823;28;20374;-91
2022/04/10 11:23:41;;;;;;;2.65;0.90;;;;;;;18.54;41.96;99411.84;5080710;28;20040;-90
2022/04/10 11:26:16;;;;;;;1.95;0.50;;;;;;;18.54;42.14;99396.00;5079502;28;20036;-90
2022/04/10 11:29:00;;;;;;;1.95;0.68;;;;;;;18.55;42.03;99398.53;5079562;28;20141;-91
2022/04/10 11:31:36;;;;;;;1.25;0.65;;;;;;;18.56;42.13;99395.00;5079240;28;20062;-90
2022/04/10 11:34:13;;;;;;;3.22;1.02;;;;;;;18.57;42.06;99386.13;5079747;28;20048;-88
2022/04/10 11:37:00;;;;;;;2.25;0.80;;;;;;;18.59;41.78;99378.13;5079934;28;20029;-88
2022/04/10 11:39:35;;;;;;;2.67;0.68;;;;;;;18.59;42.09;99376.31;5079458;28;20146;-89
2022/04/10 11:42:02;;;;;;;3.20;1.20;;;;;;;18.62;41.99;99380.59;5080322;28;20028;-89
2022/04/10 11:44:29;;;;;;;1.40;0.50;;;;;;;18.62;42.21;99377.94;5080032;28;20055;-89